createdAt,value
2022-12-01T06:44:12.392Z,28.23
2022-12-01T06:46:35.968Z,29.80
2022-12-01T06:48:58.697Z,27.40
2022-12-01T06:51:22.756Z,26.25
2022-12-01T06:53:45.424Z,25.27
2022-12-01T06:56:07.946Z,27.08
2022-12-01T06:58:32.452Z,29.65
2022-12-01T07:00:57.380Z,28.03
2022-12-01T07:03:20.436Z,30.27
2022-12-01T07:05:44.202Z,45.85
2022-12-01T07:08:07.562Z,28.52
2022-12-01T07:10:30.274Z,28.98
2022-12-01T07:12:55.569Z,29.00
2022-12-01T07:15:18.438Z,28.25
2022-12-01T07:17:41.071Z,32.72
2022-12-01T07:20:04.349Z,38.25
2022-12-01T07:22:32.618Z,33.28
2022-12-01T07:24:57.163Z,32.60
2022-12-01T07:27:20.286Z,31.23
2022-12-01T07:29:43.558Z,30.90
2022-12-01T07:32:07.776Z,34.53
2022-12-01T07:34:30.450Z,30.58
2022-12-01T07:36:53.068Z,31.40
2022-12-01T07:39:15.846Z,31.33
2022-12-01T07:41:38.614Z,31.90
2022-12-01T07:44:02.800Z,32.10
2022-12-01T07:46:27.140Z,30.58
2022-12-01T07:48:51.064Z,32.23
2022-12-01T07:51:16.855Z,29.15
2022-12-01T07:53:39.978Z,33.08
2022-12-01T07:56:08.561Z,31.35
2022-12-01T07:58:32.788Z,31.40
2022-12-01T08:00:55.417Z,29.73
2022-12-01T08:03:18.766Z,27.48
2022-12-01T08:05:41.368Z,33.95
2022-12-01T08:08:04.324Z,29.73
2022-12-01T08:10:27.016Z,29.65
2022-12-01T08:12:49.635Z,34.03
2022-12-01T08:15:12.317Z,32.22
2022-12-01T08:17:35.045Z,31.52
2022-12-01T08:19:57.686Z,28.40
2022-12-01T08:22:20.366Z,30.20
2022-12-01T08:24:42.958Z,33.17
2022-12-01T08:27:05.675Z,29.60
2022-12-01T08:29:28.566Z,26.70
2022-12-01T08:31:51.365Z,27.83
2022-12-01T08:34:14.052Z,28.17
2022-12-01T08:36:38.109Z,30.27
2022-12-01T08:39:02.215Z,33.33
2022-12-01T08:41:25.386Z,30.30
2022-12-01T08:44:03.269Z,29.55
2022-12-01T08:46:29.198Z,27.83
2022-12-01T08:48:52.152Z,30.13
2022-12-01T08:51:16.659Z,34.38
2022-12-01T08:53:46.562Z,31.63
2022-12-01T08:56:17.738Z,30.10
2022-12-01T08:58:40.465Z,28.65
2022-12-01T09:01:08.982Z,30.73
2022-12-01T09:03:32.102Z,30.08
2022-12-01T09:05:54.862Z,33.88
2022-12-01T09:08:33.209Z,34.10
2022-12-01T09:10:55.955Z,28.60
2022-12-01T09:13:18.657Z,28.27
2022-12-01T09:15:41.431Z,27.48
2022-12-01T09:18:04.163Z,32.88
2022-12-01T09:20:27.149Z,28.67
2022-12-01T09:22:49.954Z,27.38
2022-12-01T09:25:14.794Z,30.00
2022-12-01T09:27:37.376Z,29.10
2022-12-01T09:30:00.124Z,25.00
2022-12-01T09:32:22.912Z,27.80
2022-12-01T09:34:45.663Z,27.55
2022-12-01T09:37:08.339Z,30.70
2022-12-01T09:39:31.186Z,28.63
2022-12-01T09:42:08.247Z,27.70
2022-12-01T09:44:45.525Z,28.80
2022-12-01T09:47:19.296Z,29.77
2022-12-01T09:49:52.754Z,24.83
2022-12-01T09:52:18.210Z,26.20
2022-12-01T09:54:41.317Z,28.25
2022-12-01T09:57:04.193Z,27.67
2022-12-01T09:59:33.368Z,29.30
2022-12-01T10:02:01.119Z,25.77
2022-12-01T10:04:34.251Z,29.25
2022-12-01T10:07:02.322Z,31.23
2022-12-01T10:09:43.898Z,27.38
2022-12-01T10:12:14.982Z,28.77
2022-12-01T10:14:38.024Z,26.50
2022-12-01T10:17:31.246Z,30.90
2022-12-01T10:20:02.607Z,29.42
2022-12-01T10:22:43.918Z,30.33
2022-12-01T10:25:20.887Z,28.38
2022-12-01T10:27:43.576Z,30.33
2022-12-01T10:30:12.462Z,30.27
2022-12-01T10:33:01.196Z,31.92
2022-12-01T10:35:29.388Z,26.65
2022-12-01T10:37:59.040Z,28.80
2022-12-01T10:40:21.828Z,33.23
2022-12-01T10:42:49.617Z,31.17
2022-12-01T10:45:30.679Z,30.50
2022-12-01T10:48:11.372Z,30.88
2022-12-01T10:50:36.150Z,30.30
2022-12-01T10:52:58.746Z,28.23
2022-12-01T10:55:27.806Z,33.42
2022-12-01T10:57:52.442Z,34.67
2022-12-01T11:00:57.444Z,29.35
2022-12-01T11:03:07.233Z,33.42
2022-12-01T11:05:38.452Z,31.70
2022-12-01T11:08:02.771Z,34.05
2022-12-01T11:10:37.230Z,33.45
2022-12-01T11:13:07.019Z,31.67
2022-12-01T11:15:39.649Z,33.67
2022-12-01T11:18:05.878Z,33.77
2022-12-01T11:20:38.198Z,29.92
2022-12-01T11:23:09.725Z,32.17
2022-12-01T11:25:32.381Z,32.78
2022-12-01T11:27:57.733Z,30.23
2022-12-01T11:30:26.814Z,32.40
2022-12-01T11:32:59.242Z,30.10
2022-12-01T11:35:25.565Z,29.10
2022-12-01T11:38:21.084Z,29.38
2022-12-01T11:40:49.843Z,25.05
2022-12-01T11:43:28.481Z,27.67
2022-12-01T11:45:52.141Z,25.08
2022-12-01T11:48:21.178Z,19.33
2022-12-01T11:50:59.634Z,20.45
2022-12-01T11:53:38.948Z,20.23
2022-12-01T11:56:23.623Z,25.30
2022-12-01T11:58:48.934Z,19.23
2022-12-01T12:01:29.447Z,18.10
2022-12-01T12:04:21.918Z,18.55
2022-12-01T12:07:16.249Z,17.98
2022-12-01T12:09:44.752Z,20.17
2022-12-01T12:12:07.875Z,18.52
2022-12-01T12:14:49.932Z,18.08
2022-12-01T12:17:20.031Z,20.65
2022-12-01T12:20:08.931Z,18.98
2022-12-01T12:22:58.640Z,18.30
2022-12-01T12:25:56.779Z,17.25
2022-12-01T12:28:23.125Z,18.10
2022-12-01T12:31:05.010Z,16.63
2022-12-01T12:34:14.210Z,16.65
2022-12-01T12:36:42.713Z,16.53
2022-12-01T12:39:17.271Z,16.17
2022-12-01T12:41:46.056Z,16.58
2022-12-01T12:44:17.608Z,19.73
2022-12-01T12:47:03.376Z,18.55
2022-12-01T12:49:42.970Z,19.43
2022-12-01T12:52:13.202Z,18.33
2022-12-01T12:55:00.381Z,20.13
2022-12-01T12:57:31.583Z,24.50
2022-12-01T13:00:04.124Z,18.95
2022-12-01T13:02:33.507Z,18.60
2022-12-01T13:05:05.994Z,16.58
2022-12-01T13:07:39.418Z,17.98
2022-12-01T13:10:12.107Z,21.65
2022-12-01T13:12:43.708Z,22.63
2022-12-01T13:15:19.350Z,20.23
2022-12-01T13:17:46.370Z,16.95
2022-12-01T13:20:18.320Z,19.13
2022-12-01T13:22:41.506Z,17.08
2022-12-01T13:25:05.348Z,18.15
2022-12-01T13:27:31.724Z,19.50
2022-12-01T13:29:56.239Z,15.60
2022-12-01T13:32:30.721Z,16.83
2022-12-01T13:34:53.502Z,15.75
2022-12-01T13:37:26.915Z,15.77
2022-12-01T13:39:54.737Z,18.30
2022-12-01T13:42:27.986Z,17.23
2022-12-01T13:45:10.724Z,16.02
2022-12-01T13:47:48.147Z,14.90
2022-12-01T13:50:46.090Z,15.45
2022-12-01T13:53:18.023Z,16.63
2022-12-01T13:56:06.175Z,15.35
2022-12-01T13:58:34.765Z,19.45
2022-12-01T14:01:20.599Z,17.75
2022-12-01T14:03:51.724Z,16.48
2022-12-01T14:06:50.831Z,19.70
2022-12-01T14:09:29.760Z,21.55
2022-12-01T14:12:01.442Z,16.42
2022-12-01T14:14:26.705Z,17.95
2022-12-01T14:16:53.110Z,16.60
2022-12-01T14:19:46.628Z,19.00
2022-12-01T14:22:45.229Z,17.95
2022-12-01T14:25:19.912Z,20.27
2022-12-01T14:27:43.926Z,21.58
2022-12-01T14:30:47.863Z,20.55
2022-12-01T14:33:47.914Z,22.25
2022-12-01T14:36:36.252Z,21.73
2022-12-01T14:38:58.989Z,22.20
2022-12-01T14:41:31.341Z,22.42
2022-12-01T14:44:06.043Z,23.80
2022-12-01T14:46:31.080Z,22.53
2022-12-01T14:48:55.165Z,23.55
2022-12-01T14:51:32.396Z,24.08
2022-12-01T14:53:56.347Z,22.23
2022-12-01T14:56:22.016Z,23.17
2022-12-01T14:59:15.150Z,26.57
2022-12-01T15:01:38.276Z,29.20
2022-12-01T15:04:04.122Z,25.05
2022-12-01T15:06:30.069Z,31.98
2022-12-01T15:12:00.217Z,33.50
2022-12-01T15:14:22.776Z,34.72
2022-12-01T15:16:45.931Z,34.80
2022-12-01T15:19:31.862Z,37.10
2022-12-01T15:21:54.691Z,38.80
2022-12-01T15:24:25.880Z,35.60
2022-12-01T15:26:50.701Z,41.75
2022-12-01T15:29:22.729Z,41.60
2022-12-01T15:31:48.274Z,38.80
2022-12-01T15:34:21.197Z,41.13
2022-12-01T15:36:44.932Z,37.83
2022-12-01T15:39:16.216Z,51.40
2022-12-01T15:41:39.939Z,51.10
2022-12-01T15:44:03.782Z,48.33
2022-12-01T15:46:32.514Z,54.97
2022-12-01T15:49:15.956Z,52.70
2022-12-01T15:51:38.682Z,46.72
2022-12-01T15:54:03.579Z,46.50
2022-12-01T15:56:38.073Z,40.35
2022-12-01T15:59:41.649Z,40.20
2022-12-01T16:02:32.067Z,39.60
2022-12-01T16:05:28.757Z,39.35
2022-12-01T16:08:13.167Z,37.13
2022-12-01T16:10:36.682Z,43.22
2022-12-01T16:13:37.094Z,40.45
2022-12-01T16:15:59.782Z,39.93
2022-12-01T16:18:33.291Z,42.10
2022-12-01T16:21:03.110Z,40.72
2022-12-01T16:23:26.403Z,45.33
2022-12-01T16:25:49.025Z,43.30
2022-12-01T16:28:24.170Z,49.13
2022-12-01T16:30:47.563Z,43.70
2022-12-01T16:33:18.942Z,49.75
2022-12-01T16:35:41.610Z,56.35
2022-12-01T16:38:30.534Z,57.08
2022-12-01T16:40:56.146Z,59.93
2022-12-01T16:43:21.839Z,52.60
2022-12-01T16:45:46.301Z,47.28
2022-12-01T16:48:09.615Z,49.97
2022-12-01T16:50:33.525Z,44.78
2022-12-01T16:52:56.247Z,42.93
2022-12-01T16:55:37.593Z,42.65
2022-12-01T16:58:00.509Z,41.45
2022-12-01T17:00:23.686Z,44.50
2022-12-01T17:02:46.506Z,47.45
2022-12-01T17:05:11.166Z,37.97
2022-12-01T17:07:33.990Z,42.40
2022-12-01T17:09:56.838Z,42.40
2022-12-01T17:12:19.443Z,44.95
2022-12-01T17:14:42.030Z,41.20
2022-12-01T17:17:04.964Z,42.07
2022-12-01T17:19:27.729Z,38.65
2022-12-01T17:21:50.532Z,41.50
2022-12-01T17:24:18.700Z,42.08
2022-12-01T17:26:45.135Z,47.92
2022-12-01T17:29:07.748Z,45.03
2022-12-01T17:31:30.824Z,41.78
2022-12-01T17:33:53.489Z,42.83
2022-12-01T17:36:16.550Z,44.08
2022-12-01T17:38:41.969Z,39.40
2022-12-01T17:41:10.442Z,39.33
2022-12-01T17:43:34.953Z,36.30
2022-12-01T17:45:57.665Z,40.13
2022-12-01T17:48:20.572Z,39.70
2022-12-01T17:50:43.582Z,38.58
2022-12-01T17:53:06.142Z,40.03
2022-12-01T17:55:29.009Z,43.67
2022-12-01T17:57:51.661Z,51.30
2022-12-01T18:00:14.909Z,65.22
2022-12-01T18:02:37.478Z,69.45
2022-12-01T18:05:00.383Z,67.23
2022-12-01T18:07:23.605Z,63.38
2022-12-01T18:09:46.465Z,50.70
2022-12-01T18:12:09.414Z,46.42
2022-12-01T18:14:34.567Z,45.92
2022-12-01T18:16:57.275Z,50.33
2022-12-01T18:19:20.699Z,46.35
2022-12-01T18:21:43.691Z,45.40
2022-12-01T18:24:08.919Z,48.45
2022-12-01T18:26:35.185Z,47.22
2022-12-01T18:29:04.964Z,49.27
2022-12-01T18:31:29.150Z,46.42
2022-12-01T18:33:52.346Z,45.47
2022-12-01T18:36:18.184Z,50.05
2022-12-01T18:38:41.417Z,46.97
2022-12-01T18:41:04.549Z,47.60
2022-12-01T18:43:28.673Z,48.58
2022-12-01T18:45:51.740Z,55.90
2022-12-01T18:48:14.401Z,58.85
2022-12-01T18:50:38.013Z,68.72
2022-12-01T18:53:00.952Z,72.00
2022-12-01T18:55:23.741Z,70.88
2022-12-01T18:57:46.995Z,76.43
2022-12-01T19:00:10.900Z,72.65
2022-12-01T19:02:33.797Z,65.57
2022-12-01T19:04:56.648Z,60.67
2022-12-01T19:07:19.591Z,55.20
2022-12-01T19:09:42.515Z,54.83
2022-12-01T19:12:06.658Z,56.15
2022-12-01T19:14:29.328Z,63.65
2022-12-01T19:16:51.952Z,66.10
2022-12-01T19:19:14.827Z,65.65
2022-12-01T19:21:39.488Z,74.68
2022-12-01T19:24:02.359Z,79.90
2022-12-01T19:26:25.980Z,80.40
2022-12-01T19:28:50.303Z,82.37
2022-12-01T19:31:18.904Z,80.57
2022-12-01T19:33:42.503Z,89.18
2022-12-01T19:36:07.924Z,85.15
2022-12-01T19:38:31.675Z,91.03
2022-12-01T19:40:54.913Z,85.57
2022-12-01T19:43:18.355Z,91.50
2022-12-01T19:45:41.347Z,91.82
2022-12-01T19:48:05.651Z,100.90
2022-12-01T19:50:28.828Z,107.25
2022-12-01T19:52:51.640Z,103.27
2022-12-01T19:55:14.495Z,105.50
2022-12-01T19:57:37.338Z,93.53
2022-12-01T20:00:00.401Z,96.97
2022-12-01T20:02:28.889Z,106.05
2022-12-01T20:04:52.522Z,92.57
2022-12-01T20:07:15.739Z,100.90
2022-12-01T20:09:39.077Z,112.88
2022-12-01T20:12:01.955Z,100.82
2022-12-01T20:14:24.827Z,101.60
2022-12-01T20:16:47.488Z,96.57
2022-12-01T20:19:10.415Z,94.13
2022-12-01T20:21:35.597Z,98.32
2022-12-01T20:24:06.915Z,91.63
2022-12-01T20:26:37.601Z,91.20
2022-12-01T20:29:03.953Z,95.70
2022-12-01T20:31:28.611Z,88.75
2022-12-01T20:33:53.683Z,97.55
2022-12-01T20:36:17.327Z,96.65
2022-12-01T20:38:41.391Z,97.57
2022-12-01T20:41:05.526Z,104.30
2022-12-01T20:43:28.683Z,106.90
2022-12-01T20:45:51.778Z,110.13
2022-12-01T20:48:14.921Z,112.25
2022-12-01T20:50:38.678Z,108.47
2022-12-01T20:53:01.895Z,110.63
2022-12-01T20:55:26.885Z,106.18
2022-12-01T20:57:49.845Z,110.28
2022-12-01T21:00:13.714Z,107.55
2022-12-01T21:02:37.585Z,115.68
2022-12-01T21:05:00.727Z,118.93
2022-12-01T21:07:23.708Z,115.03
2022-12-01T21:09:46.465Z,119.30
2022-12-01T21:12:34.507Z,122.55
2022-12-01T21:15:20.037Z,128.80
2022-12-01T21:17:49.036Z,100.77
2022-12-01T21:20:21.771Z,111.78
2022-12-01T21:22:46.319Z,87.90
2022-12-01T21:25:15.890Z,97.63
2022-12-01T21:27:38.461Z,100.63
2022-12-01T21:30:01.295Z,89.90
2022-12-01T21:32:31.927Z,82.60
2022-12-01T21:35:00.044Z,88.57
2022-12-01T21:37:24.766Z,80.18
2022-12-01T21:39:51.001Z,72.18
2022-12-01T21:42:22.766Z,76.07
2022-12-01T21:44:45.655Z,73.00
2022-12-01T21:47:26.409Z,76.63
2022-12-01T21:49:54.418Z,79.30
2022-12-01T21:52:20.158Z,78.75
2022-12-01T21:54:42.959Z,79.37
2022-12-01T21:57:25.028Z,74.93
2022-12-01T21:59:48.432Z,74.50
2022-12-01T22:02:57.009Z,75.00
2022-12-01T22:06:21.441Z,73.93
2022-12-01T22:08:38.397Z,68.90
2022-12-01T22:11:18.574Z,72.15
2022-12-01T22:13:44.142Z,74.70
2022-12-01T22:16:19.768Z,70.47
2022-12-01T22:18:46.664Z,75.68
2022-12-01T22:21:28.471Z,74.33
2022-12-01T22:24:11.228Z,65.47
2022-12-01T22:26:36.665Z,64.80
2022-12-01T22:29:00.386Z,67.00
2022-12-01T22:31:23.266Z,64.35
2022-12-01T22:33:45.807Z,71.43
2022-12-01T22:36:23.092Z,75.95
2022-12-01T22:38:45.604Z,79.45
2022-12-01T22:41:13.321Z,77.95
2022-12-01T22:43:44.420Z,79.13
2022-12-01T22:46:16.470Z,76.23
2022-12-01T22:48:44.734Z,76.38
2022-12-01T22:51:13.606Z,70.97
2022-12-01T22:53:36.153Z,72.25
2022-12-01T22:56:01.338Z,72.82
2022-12-01T22:58:29.845Z,66.40
2022-12-01T23:00:53.527Z,66.15
2022-12-01T23:03:16.666Z,63.00
2022-12-01T23:05:39.280Z,65.07
2022-12-01T23:08:02.931Z,67.78
2022-12-01T23:10:30.271Z,66.37
2022-12-01T23:12:55.248Z,65.60
2022-12-01T23:15:34.419Z,68.57
2022-12-01T23:18:14.221Z,64.90
2022-12-01T23:20:36.860Z,64.28
2022-12-01T23:23:03.139Z,67.57
2022-12-01T23:25:27.439Z,66.15
2022-12-01T23:27:52.233Z,64.97
2022-12-01T23:30:16.273Z,67.00
2022-12-01T23:32:38.841Z,56.50
2022-12-01T23:35:02.044Z,62.87
2022-12-01T23:37:35.824Z,63.80
2022-12-01T23:39:58.722Z,60.20
2022-12-01T23:42:21.608Z,66.82
2022-12-01T23:44:45.595Z,62.13
2022-12-01T23:47:21.873Z,62.70
2022-12-01T23:49:46.527Z,64.75
2022-12-01T23:52:12.870Z,66.38
2022-12-01T23:54:38.676Z,64.95
2022-12-01T23:57:03.940Z,70.57
2022-12-01T23:59:27.937Z,68.03
